Seattle, Washington
Traffic Map
Current Weather Conditions
Seattle, Washington
Overcast
Overcast
41°
Feels Like: 35°
Wind Chill: 35° Ceiling: 7500
Heat Index: 41° Visibility: 10mi
Dew Point: 38° Wind: 10mph
Humidity: 89% Direction: 150° (SSE)
Pressure: 29.87in Gusts: 0mph
Raw Report DataKBFI 101853Z 15009KT 10SM FEW039 SCT060 OVC075 05/03 A2987 RMK AO2 SLP113 T00500033
Traffic Incident Summary
Active as of:
Severity:
Category:
InformationThere was an issue retrieving the traffic information for this location. Please try a different location or try again shortly.
Advertisements
Track Severe Weather on mobile